Time;durP1;ratioP1;P1;durP2;ratioP2;P2;SDS_P1;SDS_P2;PMS_P1;PMS_P2;Temp;Humidity;BMP_temperature;BMP_pressure;BME280_temperature;BME280_humidity;BME280_pressure;Samples;Min_cycle;Max_cycle;Signal;HPM_P1;HPM_P2
2021/04/04 00:08:30;;;;;;;16.67;3.87;;;6.20;99.90;;;;;;6745602;87;20714;-75
2021/04/04 00:18:31;;;;;;;16.75;4.05;;;5.90;99.90;;;;;;6740836;87;20196;-75
2021/04/04 00:28:32;;;;;;;20.95;4.00;;;5.60;99.90;;;;;;6752407;88;20199;-75
2021/04/04 00:38:33;;;;;;;18.42;3.72;;;5.40;99.90;;;;;;6755684;88;20220;-75
2021/04/04 00:48:33;;;;;;;15.77;4.12;;;5.30;99.90;;;;;;6751632;88;20567;-75
2021/04/04 00:58:34;;;;;;;13.43;4.35;;;5.20;99.90;;;;;;6705890;88;20586;-75
2021/04/04 01:08:39;;;;;;;15.15;3.87;;;4.90;99.90;;;;;;6671652;88;20278;-75
2021/04/04 01:19:05;;;;;;;20.58;4.90;;;4.70;99.90;;;;;;6761399;88;20192;-75
2021/04/04 01:29:09;;;;;;;22.87;5.00;;;4.60;99.90;;;;;;6722321;88;20847;-75
2021/04/04 01:39:12;;;;;;;19.60;4.18;;;4.50;99.90;;;;;;6757541;88;20193;-75
2021/04/04 01:49:15;;;;;;;17.23;4.37;;;4.50;99.90;;;;;;6756622;88;20229;-75
2021/04/04 01:59:18;;;;;;;20.83;4.40;;;4.60;99.90;;;;;;6756056;88;20201;-75
2021/04/04 02:09:20;;;;;;;14.63;4.28;;;4.80;99.90;;;;;;6755452;88;20187;-75
2021/04/04 02:19:25;;;;;;;15.73;4.25;;;5.10;99.90;;;;;;6755660;88;20306;-75
2021/04/04 02:29:26;;;;;;;17.67;3.97;;;5.20;99.90;;;;;;6748688;87;20196;-75
2021/04/04 02:39:33;;;;;;;18.85;4.70;;;5.30;99.90;;;;;;6755852;88;20211;-75
2021/04/04 02:49:36;;;;;;;16.65;4.03;;;5.40;99.90;;;;;;6757092;88;20241;-75
2021/04/04 02:59:43;;;;;;;24.35;4.35;;;5.40;99.90;;;;;;6756678;88;20240;-75
2021/04/04 03:09:46;;;;;;;15.65;4.18;;;5.40;99.90;;;;;;6756102;88;20184;-76
2021/04/04 03:19:48;;;;;;;16.42;3.97;;;5.40;99.90;;;;;;6752332;88;20216;-76
2021/04/04 03:29:49;;;;;;;14.65;4.40;;;5.40;99.90;;;;;;6753554;87;20227;-75
2021/04/04 03:39:50;;;;;;;15.80;3.80;;;5.30;99.90;;;;;;6739822;88;20234;-75
2021/04/04 03:49:51;;;;;;;14.93;4.43;;;5.40;99.90;;;;;;6755815;88;20203;-75
2021/04/04 03:59:53;;;;;;;16.67;4.00;;;5.40;99.90;;;;;;6752071;88;20206;-76
2021/04/04 04:09:54;;;;;;;18.67;4.35;;;5.50;99.90;;;;;;6754592;88;20720;-76
2021/04/04 04:19:56;;;;;;;16.80;4.22;;;5.70;99.90;;;;;;6748697;88;20200;-76
2021/04/04 04:29:59;;;;;;;22.52;5.15;;;5.60;99.90;;;;;;6737837;76;20272;-77
2021/04/04 04:40:07;;;;;;;14.75;4.55;;;5.70;99.90;;;;;;6641122;88;20185;-77
2021/04/04 04:50:09;;;;;;;19.17;4.60;;;5.80;99.90;;;;;;6648113;88;20188;-77
2021/04/04 05:00:10;;;;;;;20.65;4.90;;;5.70;99.90;;;;;;6738936;88;20213;-77
2021/04/04 05:10:13;;;;;;;17.55;4.28;;;5.90;99.90;;;;;;6693650;88;20204;-77
2021/04/04 05:20:16;;;;;;;15.55;4.20;;;5.80;99.90;;;;;;6648867;88;20234;-77
2021/04/04 05:30:17;;;;;;;24.12;4.35;;;5.90;99.90;;;;;;6662682;88;20200;-77
2021/04/04 05:40:29;;;;;;;13.75;3.53;;;5.80;99.90;;;;;;6654509;88;20210;-77
2021/04/04 05:51:03;;;;;;;18.05;4.10;;;5.80;99.90;;;;;;6718411;88;20178;-77
2021/04/04 06:01:21;;;;;;;17.52;4.20;;;5.80;99.90;;;;;;6735647;88;20247;-77
2021/04/04 06:11:55;;;;;;;18.17;3.78;;;5.90;99.90;;;;;;6735915;88;20672;-77
2021/04/04 06:22:14;;;;;;;17.60;4.37;;;5.70;99.90;;;;;;6739784;88;20181;-77
2021/04/04 06:32:27;;;;;;;16.55;4.60;;;5.60;99.90;;;;;;6737999;88;20214;-77
2021/04/04 06:43:07;;;;;;;19.60;5.18;;;5.70;99.90;;;;;;6732839;88;20289;-77
2021/04/04 06:53:30;;;;;;;21.50;4.82;;;5.80;99.90;;;;;;6738874;88;20215;-77
2021/04/04 07:03:44;;;;;;;16.58;4.78;;;5.70;99.90;;;;;;6734923;88;20205;-77
2021/04/04 07:13:57;;;;;;;23.92;4.93;;;5.80;99.90;;;;;;6732248;88;20172;-76
2021/04/04 07:24:26;;;;;;;21.30;5.32;;;5.90;99.90;;;;;;6724658;88;20649;-77
2021/04/04 07:35:01;;;;;;;18.12;5.35;;;5.90;99.90;;;;;;6691148;88;20784;-77
2021/04/04 07:45:29;;;;;;;23.12;5.55;;;6.30;99.90;;;;;;6661758;88;20744;-77
2021/04/04 07:55:35;;;;;;;17.35;5.95;;;6.20;99.90;;;;;;6671696;88;20200;-77
2021/04/04 08:05:41;;;;;;;24.05;6.72;;;6.20;99.90;;;;;;6662503;88;20168;-77
2021/04/04 08:15:51;;;;;;;17.70;6.93;;;6.40;99.90;;;;;;6668399;88;20214;-77
2021/04/04 08:26:01;;;;;;;27.08;8.02;;;6.30;99.90;;;;;;6663232;88;20693;-77
2021/04/04 08:36:02;;;;;;;24.42;9.40;;;6.50;99.90;;;;;;6674452;88;20180;-77
2021/04/04 08:46:18;;;;;;;17.95;7.25;;;6.50;99.90;;;;;;6662591;89;20388;-77
2021/04/04 08:56:20;;;;;;;22.73;6.82;;;6.30;99.90;;;;;;6677214;88;20212;-76
2021/04/04 09:06:21;;;;;;;18.58;6.10;;;6.30;99.90;;;;;;6670684;88;20210;-76
2021/04/04 09:16:22;;;;;;;16.27;5.25;;;6.70;99.90;;;;;;6663389;88;20246;-77
2021/04/04 09:26:28;;;;;;;13.90;5.07;;;6.80;99.90;;;;;;6659202;89;20289;-76
2021/04/04 09:36:46;;;;;;;15.60;5.33;;;6.90;99.90;;;;;;6669834;88;20541;-77
2021/04/04 09:46:55;;;;;;;18.30;5.72;;;7.20;99.90;;;;;;6680072;88;20373;-76
2021/04/04 09:56:57;;;;;;;21.77;6.70;;;7.40;99.90;;;;;;6660826;89;20221;-76
2021/04/04 10:07:01;;;;;;;16.37;6.15;;;7.40;99.90;;;;;;6661749;88;20644;-75
2021/04/04 10:17:11;;;;;;;16.75;6.07;;;7.10;99.90;;;;;;6664698;88;20217;-75
2021/04/04 10:27:29;;;;;;;21.67;6.90;;;7.40;99.90;;;;;;6671738;88;20652;-76
2021/04/04 10:48:39;;;;;;;16.83;6.97;;;8.00;99.90;;;;;;6671273;88;20221;-76
2021/04/04 10:58:40;;;;;;;21.58;7.18;;;7.60;99.90;;;;;;6672528;88;20191;-77
2021/04/04 11:08:42;;;;;;;23.50;8.30;;;8.10;99.90;;;;;;6668012;88;20396;-75
2021/04/04 11:18:49;;;;;;;23.62;9.25;;;8.30;99.90;;;;;;6667135;89;20638;-76
2021/04/04 11:29:09;;;;;;;25.30;10.45;;;8.20;99.90;;;;;;6648297;89;20200;-76
2021/04/04 11:39:09;;;;;;;30.27;11.93;;;8.00;99.90;;;;;;6651691;89;20184;-75
2021/04/04 11:49:34;;;;;;;26.30;11.23;;;7.80;99.90;;;;;;6650904;89;21004;-75
2021/04/04 11:59:35;;;;;;;28.87;11.10;;;7.80;99.90;;;;;;6659701;89;20321;-77
2021/04/04 12:09:37;;;;;;;25.45;10.93;;;7.80;99.90;;;;;;6650941;89;20184;-78
2021/04/04 12:19:41;;;;;;;21.17;9.02;;;7.90;99.90;;;;;;6647387;89;20199;-75
2021/04/04 12:29:46;;;;;;;22.85;10.98;;;8.00;99.90;;;;;;6649981;89;20573;-76
2021/04/04 12:39:47;;;;;;;21.03;9.50;;;7.90;99.90;;;;;;6646588;89;20238;-75
2021/04/04 12:49:57;;;;;;;18.27;8.57;;;7.90;99.90;;;;;;6646902;89;20335;-76
2021/04/04 12:59:57;;;;;;;18.65;8.30;;;7.80;99.90;;;;;;6647465;88;20180;-76
2021/04/04 13:09:58;;;;;;;18.40;7.43;;;7.70;99.90;;;;;;6646615;89;20196;-75
2021/04/04 13:19:58;;;;;;;21.75;7.65;;;7.50;99.90;;;;;;6648091;89;20245;-77
2021/04/04 13:30:00;;;;;;;14.68;7.32;;;7.60;99.90;;;;;;6653782;89;20207;-76
2021/04/04 13:40:00;;;;;;;15.68;6.93;;;7.70;99.90;;;;;;6655171;89;20204;-76
2021/04/04 13:50:15;;;;;;;19.40;7.95;;;8.00;99.90;;;;;;6650438;89;20713;-76
2021/04/04 14:00:16;;;;;;;17.33;7.62;;;8.20;99.90;;;;;;6653086;89;20650;-75
2021/04/04 14:10:16;;;;;;;21.10;8.38;;;8.10;99.90;;;;;;6651459;89;20196;-75
2021/04/04 14:20:17;;;;;;;18.65;8.90;;;8.10;99.90;;;;;;6651963;88;20618;-76
2021/04/04 14:30:18;;;;;;;19.00;7.72;;;8.60;99.90;;;;;;6648808;89;20699;-76
2021/04/04 14:40:19;;;;;;;17.10;7.78;;;8.20;99.90;;;;;;6652624;88;20209;-75
2021/04/04 14:50:19;;;;;;;22.52;8.23;;;8.30;99.90;;;;;;6651574;89;20218;-75
2021/04/04 15:00:20;;;;;;;18.60;6.80;;;8.50;99.90;;;;;;6651076;89;20199;-76
2021/04/04 15:10:21;;;;;;;17.10;6.82;;;8.60;99.90;;;;;;6650804;89;20658;-75
2021/04/04 15:20:22;;;;;;;13.02;4.87;;;8.90;99.90;;;;;;6650246;89;20209;-76
2021/04/04 15:30:31;;;;;;;10.90;4.55;;;9.10;99.90;;;;;;6645460;89;20230;-76
2021/04/04 15:40:33;;;;;;;7.82;4.22;;;9.10;99.90;;;;;;6655850;89;20187;-77
2021/04/04 15:50:36;;;;;;;9.20;4.18;;;8.80;99.90;;;;;;6651101;89;20209;-77
2021/04/04 16:00:37;;;;;;;10.23;4.45;;;8.60;99.90;;;;;;6651357;88;20297;-75
2021/04/04 16:10:40;;;;;;;10.68;4.12;;;8.90;99.90;;;;;;6655872;89;20757;-76
2021/04/04 16:20:41;;;;;;;11.18;4.80;;;9.20;99.90;;;;;;6650708;89;20230;-75
2021/04/04 16:30:42;;;;;;;11.20;4.18;;;9.10;99.90;;;;;;6655328;78;20226;-77
2021/04/04 16:40:43;;;;;;;12.27;4.07;;;9.30;99.90;;;;;;6675511;88;20188;-76
2021/04/04 16:50:44;;;;;;;10.18;4.22;;;9.60;99.90;;;;;;6668080;88;20194;-76
2021/04/04 17:00:45;;;;;;;14.13;4.50;;;9.50;99.90;;;;;;6668235;88;20322;-77
2021/04/04 17:10:45;;;;;;;10.18;4.28;;;9.20;99.90;;;;;;6669493;88;20312;-77
2021/04/04 17:20:46;;;;;;;10.93;4.30;;;8.90;99.90;;;;;;6672593;88;20181;-76
2021/04/04 17:30:47;;;;;;;11.30;4.47;;;8.50;99.90;;;;;;6668265;88;21009;-77
2021/04/04 17:40:48;;;;;;;13.53;4.53;;;8.20;99.90;;;;;;6672679;88;20195;-77
2021/04/04 17:50:49;;;;;;;14.30;4.82;;;8.00;99.90;;;;;;6668963;88;20563;-77
2021/04/04 18:00:49;;;;;;;12.18;4.82;;;7.80;99.90;;;;;;6663373;88;20242;-77
2021/04/04 18:21:00;;;;;;;15.60;5.12;;;7.30;99.90;;;;;;6670122;88;20699;-77
2021/04/04 18:31:02;;;;;;;13.70;6.07;;;7.00;99.90;;;;;;6670045;88;20211;-76
2021/04/04 18:41:03;;;;;;;18.08;6.60;;;6.80;99.90;;;;;;6671109;88;20185;-76
2021/04/04 18:51:05;;;;;;;18.62;6.87;;;6.50;99.90;;;;;;6670800;88;20204;-76
2021/04/04 19:01:05;;;;;;;18.52;7.90;;;6.20;99.90;;;;;;6669212;88;20200;-76
2021/04/04 19:11:09;;;;;;;21.20;9.00;;;6.20;99.90;;;;;;6672638;88;20208;-77
2021/04/04 19:21:09;;;;;;;22.48;9.90;;;5.90;99.90;;;;;;6670887;88;20749;-77
2021/04/04 19:31:10;;;;;;;25.08;13.38;;;5.90;99.90;;;;;;6675365;88;20253;-76
2021/04/04 19:41:10;;;;;;;18.12;9.15;;;5.60;99.90;;;;;;6663447;88;20211;-77
2021/04/04 19:51:11;;;;;;;22.50;9.97;;;5.40;99.90;;;;;;6664330;88;20202;-77
2021/04/04 20:01:11;;;;;;;17.85;8.07;;;5.30;99.90;;;;;;6673758;88;20670;-77
2021/04/04 20:11:12;;;;;;;21.35;7.80;;;4.80;99.90;;;;;;6671038;88;20661;-78
2021/04/04 20:21:13;;;;;;;19.77;6.95;;;4.60;99.90;;;;;;6658896;88;20194;-77
2021/04/04 20:31:13;;;;;;;21.17;6.78;;;4.50;99.90;;;;;;6667934;88;20645;-77
2021/04/04 20:41:14;;;;;;;16.30;7.05;;;4.60;99.90;;;;;;6669276;88;20210;-77
2021/04/04 20:51:16;;;;;;;19.52;6.53;;;4.80;99.90;;;;;;6665581;88;20195;-77
2021/04/04 21:01:17;;;;;;;14.95;6.87;;;5.00;99.90;;;;;;6669317;88;20203;-76
2021/04/04 21:11:18;;;;;;;18.37;6.78;;;4.70;99.90;;;;;;6665556;89;20789;-76
2021/04/04 21:21:18;;;;;;;15.95;7.28;;;4.50;99.90;;;;;;6664732;89;20234;-76
2021/04/04 21:31:19;;;;;;;18.52;6.85;;;4.50;99.90;;;;;;6670623;88;20233;-76
2021/04/04 21:41:19;;;;;;;18.37;7.22;;;4.30;99.90;;;;;;6673942;89;20194;-77
2021/04/04 21:51:20;;;;;;;18.00;7.40;;;4.10;99.90;;;;;;6671246;88;20611;-76
2021/04/04 22:01:20;;;;;;;17.30;7.30;;;4.10;99.90;;;;;;6674027;89;20223;-75
2021/04/04 22:11:26;;;;;;;21.98;7.85;;;4.10;99.90;;;;;;6673102;89;20194;-76
2021/04/04 22:21:27;;;;;;;22.03;8.00;;;4.00;99.90;;;;;;6664499;88;20262;-77
2021/04/04 22:31:27;;;;;;;18.52;7.60;;;3.90;99.90;;;;;;6677054;77;20576;-75
2021/04/04 22:41:28;;;;;;;21.17;8.00;;;3.80;99.90;;;;;;6740937;88;20840;-75
2021/04/04 22:51:29;;;;;;;21.80;8.50;;;3.80;99.90;;;;;;6738876;88;20248;-76
2021/04/04 23:01:29;;;;;;;17.17;7.80;;;3.70;99.90;;;;;;6739142;88;20319;-78
2021/04/04 23:11:30;;;;;;;21.02;8.65;;;3.50;99.90;;;;;;6738648;88;20222;-75
2021/04/04 23:21:30;;;;;;;22.73;8.43;;;3.50;99.90;;;;;;6735719;88;20225;-77
2021/04/04 23:31:31;;;;;;;21.48;9.40;;;3.50;99.90;;;;;;6738770;88;20510;-75
2021/04/04 23:41:32;;;;;;;19.77;8.80;;;3.20;99.90;;;;;;6738950;88;20675;-75
2021/04/04 23:51:32;;;;;;;18.52;8.52;;;3.10;99.90;;;;;;6740237;88;20647;-75
